createdAt,value
2023-01-31T00:01:38.172Z,98740.97
2023-01-31T00:04:09.233Z,98727.19
2023-01-31T00:06:40.263Z,98734.75
2023-01-31T00:09:09.222Z,98719.31
2023-01-31T00:11:36.367Z,98730.63
2023-01-31T00:14:05.012Z,98738.75
2023-01-31T00:16:32.272Z,98739.56
2023-01-31T00:18:59.262Z,98729.22
2023-01-31T00:21:28.548Z,98724.13
2023-01-31T00:23:56.724Z,98724.38
2023-01-31T00:26:32.491Z,98731.72
2023-01-31T00:29:02.113Z,98730.66
2023-01-31T00:31:31.066Z,98711.41
2023-01-31T00:33:58.715Z,98732.34
2023-01-31T00:36:28.371Z,98719.09
2023-01-31T00:38:57.540Z,98716.13
2023-01-31T00:41:26.119Z,98711.56
2023-01-31T00:43:53.019Z,98719.69
2023-01-31T00:46:23.936Z,98694.47
2023-01-31T00:48:51.649Z,98723.22
2023-01-31T00:51:20.244Z,98710.25
2023-01-31T00:53:47.975Z,98711.09
2023-01-31T00:56:20.699Z,98695.38
2023-01-31T00:58:47.659Z,98705.13
2023-01-31T01:01:17.370Z,98698.38
2023-01-31T01:03:45.838Z,98692.19
2023-01-31T01:06:14.363Z,98687.59
2023-01-31T01:08:43.336Z,98689.81
2023-01-31T01:11:17.049Z,98686.81
2023-01-31T01:13:44.774Z,98692.53
2023-01-31T01:16:21.362Z,98693.09
2023-01-31T01:18:49.349Z,98672.50
2023-01-31T01:21:22.430Z,98687.22
2023-01-31T01:23:49.818Z,98689.38
2023-01-31T01:26:19.745Z,98699.13
2023-01-31T01:28:47.771Z,98710.28
2023-01-31T01:31:16.775Z,98710.28
2023-01-31T01:33:50.947Z,98710.28
2023-01-31T01:36:22.272Z,98712.19
2023-01-31T01:38:49.417Z,98708.69
2023-01-31T01:41:16.912Z,98702.97
2023-01-31T01:43:54.146Z,98704.59
2023-01-31T01:46:34.181Z,98715.75
2023-01-31T01:49:06.597Z,98676.16
2023-01-31T01:51:34.676Z,98706.53
2023-01-31T01:54:06.279Z,98702.44
2023-01-31T01:56:40.619Z,98706.00
2023-01-31T01:59:20.505Z,98688.09
2023-01-31T02:01:48.912Z,98692.69
2023-01-31T02:04:20.700Z,98687.78
2023-01-31T02:06:47.901Z,98688.06
2023-01-31T02:09:42.370Z,98687.78
2023-01-31T02:12:10.540Z,98679.38
2023-01-31T02:14:40.442Z,98671.53
2023-01-31T02:17:15.900Z,98676.13
2023-01-31T02:20:16.507Z,98669.59
2023-01-31T02:22:52.805Z,98680.44
2023-01-31T02:25:32.499Z,98683.69
2023-01-31T02:28:10.450Z,98673.03
2023-01-31T02:30:46.539Z,98682.81
2023-01-31T02:33:13.411Z,98688.28
2023-01-31T02:35:49.218Z,98682.53
2023-01-31T02:38:32.028Z,98693.94
2023-01-31T02:41:07.312Z,98668.72
2023-01-31T02:44:00.151Z,98688.81
2023-01-31T02:46:56.734Z,98681.22
2023-01-31T02:49:48.254Z,98693.16
2023-01-31T02:52:27.187Z,98694.50
2023-01-31T02:55:26.886Z,98699.41
2023-01-31T02:57:57.560Z,98690.72
2023-01-31T03:00:26.116Z,98683.41
2023-01-31T03:02:53.791Z,98669.31
2023-01-31T03:05:21.696Z,98695.38
2023-01-31T03:07:57.613Z,98699.72
2023-01-31T03:10:36.711Z,98695.38
2023-01-31T03:13:10.756Z,98697.84
2023-01-31T03:16:18.518Z,98707.59
2023-01-31T03:18:53.625Z,98705.66
2023-01-31T03:21:39.930Z,98704.06
2023-01-31T03:24:07.701Z,98693.47
2023-01-31T03:26:35.620Z,98714.34
2023-01-31T03:29:05.860Z,98726.28
2023-01-31T03:31:41.252Z,98731.94
2023-01-31T03:34:11.611Z,98731.94
2023-01-31T03:37:01.573Z,98727.84
2023-01-31T03:39:52.369Z,98744.06
2023-01-31T03:42:34.062Z,98735.63
2023-01-31T03:45:05.920Z,98741.84
2023-01-31T03:47:41.078Z,98744.03
2023-01-31T03:50:31.247Z,98744.00
2023-01-31T03:53:16.062Z,98738.06
2023-01-31T03:55:49.081Z,98758.66
2023-01-31T03:58:19.856Z,98750.25
2023-01-31T04:00:49.161Z,98755.41
2023-01-31T04:03:32.828Z,98741.84
2023-01-31T04:05:59.987Z,98751.63
2023-01-31T04:08:26.921Z,98748.88
2023-01-31T04:11:04.224Z,98751.88
2023-01-31T04:13:31.052Z,98751.03
2023-01-31T04:15:57.978Z,98752.66
2023-01-31T04:18:24.950Z,98743.97
2023-01-31T04:20:51.773Z,98751.03
2023-01-31T04:23:19.145Z,98738.03
2023-01-31T04:25:46.712Z,98749.97
2023-01-31T04:28:13.645Z,98758.63
2023-01-31T04:30:40.546Z,98767.03
2023-01-31T04:33:07.367Z,98767.31
2023-01-31T04:35:35.021Z,98758.91
2023-01-31T04:38:01.985Z,98784.88
2023-01-31T04:40:28.805Z,98768.94
2023-01-31T04:42:55.825Z,98772.75
2023-01-31T04:45:22.762Z,98764.09
2023-01-31T04:47:49.652Z,98780.66
2023-01-31T04:50:16.783Z,98783.63
2023-01-31T04:52:43.700Z,98779.53
2023-01-31T04:55:10.456Z,98770.63
2023-01-31T04:57:37.248Z,98782.03
2023-01-31T05:00:05.051Z,98773.84
2023-01-31T05:02:32.224Z,98781.19
2023-01-31T05:04:59.201Z,98790.16
2023-01-31T05:07:26.183Z,98797.44
2023-01-31T05:09:53.028Z,98773.28
2023-01-31T05:12:19.829Z,98792.81
2023-01-31T05:14:46.712Z,98783.03
2023-01-31T05:17:13.830Z,98798.78
2023-01-31T05:19:42.864Z,98797.16
2023-01-31T05:22:09.917Z,98793.13
2023-01-31T05:24:37.201Z,98801.50
2023-01-31T05:27:04.680Z,98803.69
2023-01-31T05:29:32.709Z,98813.97
2023-01-31T05:32:01.446Z,98796.59
2023-01-31T05:34:31.223Z,98817.97
2023-01-31T05:36:58.251Z,98791.41
2023-01-31T05:39:25.572Z,98811.44
2023-01-31T05:41:53.062Z,98819.03
2023-01-31T05:44:20.534Z,98820.69
2023-01-31T05:46:47.347Z,98817.72
2023-01-31T05:49:14.592Z,98831.28
2023-01-31T05:51:41.924Z,98834.00
2023-01-31T05:54:11.176Z,98839.41
2023-01-31T05:56:39.287Z,98845.38
2023-01-31T05:59:06.404Z,98841.56
2023-01-31T06:01:33.539Z,98840.50
2023-01-31T06:04:00.771Z,98853.50
2023-01-31T06:06:27.740Z,98848.06
2023-01-31T06:08:54.688Z,98835.84
2023-01-31T06:11:21.767Z,98850.75
2023-01-31T06:13:49.597Z,98854.81
2023-01-31T06:16:16.540Z,98854.78
2023-01-31T06:18:43.659Z,98832.81
2023-01-31T06:21:12.190Z,98868.69
2023-01-31T06:23:39.323Z,98862.19
2023-01-31T06:26:06.272Z,98853.53
2023-01-31T06:28:33.107Z,98853.25
2023-01-31T06:31:07.073Z,98857.06
2023-01-31T06:33:44.773Z,98864.19
2023-01-31T06:36:16.667Z,98862.31
2023-01-31T06:38:45.422Z,98871.31
2023-01-31T06:41:13.037Z,98866.75
2023-01-31T06:43:39.902Z,98864.28
2023-01-31T06:46:06.704Z,98864.84
2023-01-31T06:48:33.630Z,98875.72
2023-01-31T06:51:00.478Z,98886.03
2023-01-31T06:53:27.428Z,98895.53
2023-01-31T06:55:54.342Z,98882.00
2023-01-31T06:58:21.237Z,98877.69
2023-01-31T07:00:48.127Z,98884.72
2023-01-31T07:03:15.194Z,98893.13
2023-01-31T07:05:42.780Z,98895.03
2023-01-31T07:08:09.666Z,98878.22
2023-01-31T07:10:36.574Z,98901.56
2023-01-31T07:13:03.607Z,98901.00
2023-01-31T07:15:30.496Z,98898.84
2023-01-31T07:17:59.428Z,98905.38
2023-01-31T07:20:26.908Z,98916.78
2023-01-31T07:22:58.123Z,98918.69
2023-01-31T07:25:25.436Z,98914.06
2023-01-31T07:27:52.792Z,98902.09
2023-01-31T07:30:19.927Z,98907.00
2023-01-31T07:32:47.011Z,98922.75
2023-01-31T07:35:13.963Z,98915.69
2023-01-31T07:37:43.445Z,98931.44
2023-01-31T07:40:12.007Z,98919.25
2023-01-31T07:42:39.608Z,98921.41
2023-01-31T07:45:22.510Z,98931.78
2023-01-31T07:47:59.057Z,98909.81
2023-01-31T07:50:29.824Z,98910.34
2023-01-31T07:52:58.811Z,98930.44
2023-01-31T07:55:27.040Z,98913.88
2023-01-31T07:57:53.886Z,98910.34
2023-01-31T08:00:39.553Z,98911.41
2023-01-31T08:03:24.894Z,98932.03
2023-01-31T08:05:51.790Z,98935.03
2023-01-31T08:08:18.760Z,98927.72
2023-01-31T08:10:47.381Z,98932.34
2023-01-31T08:13:14.286Z,98943.47
2023-01-31T08:15:41.144Z,98944.28
2023-01-31T08:18:08.077Z,98948.34
2023-01-31T08:20:37.746Z,98946.72
2023-01-31T08:23:04.739Z,98963.56
2023-01-31T08:25:32.182Z,98957.31
2023-01-31T08:28:00.468Z,98954.59
2023-01-31T08:30:28.530Z,98951.59
2023-01-31T08:32:56.283Z,98960.25
2023-01-31T08:35:23.215Z,98968.13
2023-01-31T08:37:50.020Z,98958.13
2023-01-31T08:40:17.089Z,98962.44
2023-01-31T08:42:44.163Z,98967.31
2023-01-31T08:45:11.111Z,98969.00
2023-01-31T08:47:39.072Z,98969.22
2023-01-31T08:50:15.868Z,98981.44
2023-01-31T08:53:00.408Z,98973.06
2023-01-31T08:55:29.181Z,98965.72
2023-01-31T08:58:00.021Z,98976.06
2023-01-31T09:00:27.513Z,98982.25
2023-01-31T09:02:59.567Z,98984.97
2023-01-31T09:05:28.865Z,98987.69
2023-01-31T09:07:55.855Z,98973.84
2023-01-31T09:10:23.352Z,98985.81
2023-01-31T09:12:50.458Z,98996.13
2023-01-31T09:15:17.639Z,98983.63
2023-01-31T09:17:44.467Z,98981.72
2023-01-31T09:20:11.722Z,98969.22
2023-01-31T09:22:38.751Z,98977.09
2023-01-31T09:25:06.282Z,98971.38
2023-01-31T09:27:33.388Z,98965.94
2023-01-31T09:30:00.287Z,98964.84
2023-01-31T09:32:27.320Z,98974.66
2023-01-31T09:34:54.310Z,98979.31
2023-01-31T09:37:21.281Z,98964.59
2023-01-31T09:39:48.274Z,98973.00
2023-01-31T09:42:24.636Z,98963.78
2023-01-31T09:45:05.633Z,98972.16
2023-01-31T09:47:44.427Z,98962.91
2023-01-31T09:50:17.443Z,98963.22
2023-01-31T09:52:44.453Z,98954.78
2023-01-31T09:55:18.375Z,98970.75
2023-01-31T09:58:09.210Z,98868.25
2023-01-31T10:01:11.941Z,98952.00
2023-01-31T10:04:07.051Z,98951.72
2023-01-31T10:06:49.199Z,98955.19
2023-01-31T10:09:15.998Z,98965.34
2023-01-31T10:11:58.307Z,98966.38
2023-01-31T10:14:34.263Z,98967.47
2023-01-31T10:17:11.660Z,98970.25
2023-01-31T10:20:07.100Z,98965.63
2023-01-31T10:22:46.114Z,98967.06
2023-01-31T10:25:35.368Z,98969.22
2023-01-31T10:28:15.586Z,98953.16
2023-01-31T10:31:02.636Z,98949.88
2023-01-31T10:33:50.771Z,98952.31
2023-01-31T10:36:43.108Z,98949.59
2023-01-31T10:39:25.242Z,98948.00
2023-01-31T10:42:03.864Z,98937.94
2023-01-31T10:44:54.611Z,98939.47
2023-01-31T10:47:33.103Z,98940.50
2023-01-31T10:50:00.303Z,98929.81
2023-01-31T10:52:50.663Z,98934.41
2023-01-31T10:55:42.351Z,98944.59
2023-01-31T10:58:15.139Z,98923.19
2023-01-31T11:00:42.603Z,98935.09
2023-01-31T11:03:12.907Z,98945.97
2023-01-31T11:06:00.279Z,98939.88
2023-01-31T11:08:38.295Z,98935.47
2023-01-31T11:11:20.079Z,98932.72
2023-01-31T11:14:06.346Z,98941.66
2023-01-31T11:16:40.788Z,98942.44
2023-01-31T11:19:27.549Z,98944.91
2023-01-31T11:21:55.085Z,98944.50
2023-01-31T11:24:24.572Z,98946.34
2023-01-31T11:27:00.805Z,98941.38
2023-01-31T11:29:30.665Z,98937.66
2023-01-31T11:32:00.215Z,98932.16
2023-01-31T11:34:30.886Z,98940.59
2023-01-31T11:37:13.966Z,98928.88
2023-01-31T11:39:41.211Z,98914.81
2023-01-31T11:42:12.257Z,98932.66
2023-01-31T11:45:00.950Z,98931.78
2023-01-31T11:47:40.120Z,98913.19
2023-01-31T11:50:08.296Z,98926.78
2023-01-31T11:52:35.761Z,98916.38
2023-01-31T11:55:08.607Z,98919.19
2023-01-31T11:57:38.393Z,98904.84
2023-01-31T12:00:31.172Z,98933.38
2023-01-31T12:03:05.652Z,98926.88
2023-01-31T12:05:41.220Z,98913.44
2023-01-31T12:08:38.919Z,98926.28
2023-01-31T12:11:07.331Z,98918.09
2023-01-31T12:14:00.578Z,98911.03
2023-01-31T12:16:30.490Z,98920.13
2023-01-31T12:19:12.167Z,98921.94
2023-01-31T12:22:12.478Z,98921.97
2023-01-31T12:24:56.740Z,98927.63
2023-01-31T12:28:01.883Z,98908.31
2023-01-31T12:30:37.686Z,98928.59
2023-01-31T12:33:35.534Z,98923.44
2023-01-31T12:36:11.380Z,98934.22
2023-01-31T12:38:44.340Z,98932.72
2023-01-31T12:41:36.638Z,98935.38
2023-01-31T12:44:25.135Z,98933.97
2023-01-31T12:47:16.898Z,98942.22
2023-01-31T12:49:49.917Z,98947.88
2023-01-31T12:52:19.874Z,98943.22
2023-01-31T12:55:11.386Z,98939.69
2023-01-31T12:57:56.366Z,98948.84
2023-01-31T13:00:53.557Z,98945.84
2023-01-31T13:03:55.526Z,98956.38
2023-01-31T13:06:32.834Z,98964.34
2023-01-31T13:09:25.321Z,98954.00
2023-01-31T13:11:55.126Z,98960.59
2023-01-31T13:14:26.766Z,98972.75
2023-01-31T13:17:00.421Z,98975.69
2023-01-31T13:19:30.265Z,98972.84
2023-01-31T13:22:06.222Z,98973.31
2023-01-31T13:24:42.790Z,98971.63
2023-01-31T13:27:12.220Z,98972.50
2023-01-31T13:29:44.278Z,98971.38
2023-01-31T13:32:14.725Z,98971.44
2023-01-31T13:34:52.078Z,98973.31
2023-01-31T13:37:21.395Z,98984.06
2023-01-31T13:40:01.210Z,98984.38
2023-01-31T13:42:28.453Z,98979.41
2023-01-31T13:45:00.144Z,98990.25
2023-01-31T13:47:43.911Z,98981.47
2023-01-31T13:50:31.072Z,98990.75
2023-01-31T13:53:02.125Z,98977.13
2023-01-31T13:55:46.149Z,98967.69
2023-01-31T13:58:29.057Z,98982.25
2023-01-31T14:01:22.820Z,98991.28
2023-01-31T14:04:18.041Z,98995.97
2023-01-31T14:06:56.852Z,98993.84
2023-01-31T14:09:29.547Z,98996.00
2023-01-31T14:11:58.926Z,98987.56
2023-01-31T14:14:29.673Z,99007.84
2023-01-31T14:16:56.914Z,99010.94
2023-01-31T14:19:23.711Z,99014.25
2023-01-31T14:22:03.876Z,99008.31
2023-01-31T14:24:56.727Z,99022.22
2023-01-31T14:27:34.918Z,99020.88
2023-01-31T14:30:07.832Z,99026.84
2023-01-31T14:32:44.876Z,99016.84
2023-01-31T14:35:19.983Z,99019.53
2023-01-31T14:38:05.653Z,99017.38
2023-01-31T14:40:35.391Z,99000.78
2023-01-31T14:43:17.499Z,99023.91
2023-01-31T14:45:56.356Z,99019.00
2023-01-31T14:49:00.649Z,99025.00
2023-01-31T14:52:05.823Z,99035.06
2023-01-31T14:55:09.781Z,99026.34
2023-01-31T14:57:45.792Z,99031.28
2023-01-31T15:00:12.539Z,99039.69
2023-01-31T15:02:54.534Z,99040.53
2023-01-31T15:05:36.573Z,99057.94
2023-01-31T15:08:26.587Z,99061.75
2023-01-31T15:11:17.439Z,99062.56
2023-01-31T15:13:51.692Z,99074.00
2023-01-31T15:16:31.167Z,99066.41
2023-01-31T15:19:12.514Z,99067.22
2023-01-31T15:21:55.695Z,99044.44
2023-01-31T15:24:38.999Z,99051.50
2023-01-31T15:27:28.760Z,99071.38
2023-01-31T15:29:59.011Z,99064.03
2023-01-31T15:32:40.949Z,99063.22
2023-01-31T15:35:19.237Z,99059.44
2023-01-31T15:37:48.020Z,99060.25
2023-01-31T15:40:24.064Z,99064.59
2023-01-31T15:42:51.679Z,99064.31
2023-01-31T15:45:30.366Z,99065.97
2023-01-31T15:48:00.143Z,99080.66
2023-01-31T15:50:29.308Z,99086.38
2023-01-31T15:52:57.212Z,99075.50
2023-01-31T15:55:24.389Z,99098.06
2023-01-31T15:58:00.267Z,99086.09
2023-01-31T16:00:33.097Z,99094.25
2023-01-31T16:03:01.121Z,99101.59
2023-01-31T16:05:39.434Z,99099.41
2023-01-31T16:08:38.871Z,99113.53
2023-01-31T16:11:10.290Z,99087.38
2023-01-31T16:13:39.903Z,99100.44
2023-01-31T16:16:14.192Z,99095.25
2023-01-31T16:18:45.273Z,99115.66
2023-01-31T16:21:42.731Z,99116.72
2023-01-31T16:24:17.418Z,99121.03
2023-01-31T16:27:09.227Z,99119.38
2023-01-31T16:30:00.412Z,99130.81
2023-01-31T16:32:40.323Z,99129.41
2023-01-31T16:35:19.700Z,99145.47
2023-01-31T16:37:47.321Z,99143.78
2023-01-31T16:40:17.297Z,99143.53
2023-01-31T16:42:44.862Z,99142.16
2023-01-31T16:45:34.848Z,99128.56
2023-01-31T16:48:29.296Z,99147.84
2023-01-31T16:51:35.652Z,99154.66
2023-01-31T16:54:28.754Z,99146.47
2023-01-31T16:57:01.961Z,99164.94
2023-01-31T16:59:35.040Z,99168.47
2023-01-31T17:02:15.758Z,99077.81
2023-01-31T17:04:45.672Z,99166.81
2023-01-31T17:07:35.142Z,99153.81
2023-01-31T17:10:09.511Z,99163.88
2023-01-31T17:12:40.347Z,99161.72
2023-01-31T17:15:19.970Z,99162.81
2023-01-31T17:17:48.099Z,99165.25
2023-01-31T17:20:20.749Z,99162.84
2023-01-31T17:22:56.868Z,99136.72
2023-01-31T17:25:32.924Z,99159.59
2023-01-31T17:27:59.832Z,99158.47
2023-01-31T17:30:31.427Z,99150.59
2023-01-31T17:32:59.566Z,99159.59
2023-01-31T17:35:37.729Z,99171.03
2023-01-31T17:38:05.345Z,99174.84
2023-01-31T17:40:32.777Z,99171.31
2023-01-31T17:43:04.662Z,99172.38
2023-01-31T17:45:33.213Z,99169.13
2023-01-31T17:48:03.894Z,99162.31
2023-01-31T17:50:31.677Z,99169.69
2023-01-31T17:52:58.895Z,99168.06
2023-01-31T17:55:25.851Z,99165.06
2023-01-31T17:57:52.924Z,99163.94
2023-01-31T18:00:21.148Z,99167.75
2023-01-31T18:02:48.076Z,99163.41
2023-01-31T18:05:20.473Z,99170.44
2023-01-31T18:07:51.619Z,99167.47
2023-01-31T18:10:18.583Z,99161.19
2023-01-31T18:12:45.673Z,99159.81
2023-01-31T18:15:12.779Z,99168.75
2023-01-31T18:17:39.769Z,99170.41
2023-01-31T18:20:07.361Z,99168.78
2023-01-31T18:22:34.266Z,99161.72
2023-01-31T18:25:01.135Z,99181.28
2023-01-31T18:27:28.134Z,99175.88
2023-01-31T18:29:55.804Z,99174.16
2023-01-31T18:32:22.718Z,99168.47
2023-01-31T18:34:49.579Z,99163.59
2023-01-31T18:37:20.371Z,99180.41
2023-01-31T18:39:49.192Z,99182.59
2023-01-31T18:42:17.152Z,99181.75
2023-01-31T18:44:45.095Z,99186.09
2023-01-31T18:47:13.201Z,99181.19
2023-01-31T18:49:40.240Z,99178.72
2023-01-31T18:52:07.839Z,99187.69
2023-01-31T18:54:37.600Z,99193.16
2023-01-31T18:57:05.257Z,99191.50
2023-01-31T18:59:34.783Z,99171.16
2023-01-31T19:02:01.832Z,99170.28
2023-01-31T19:04:28.845Z,99183.94
2023-01-31T19:06:55.758Z,99165.41
2023-01-31T19:09:23.069Z,99178.69
2023-01-31T19:11:50.033Z,99180.59
2023-01-31T19:14:16.931Z,99183.31
2023-01-31T19:16:45.060Z,99179.56
2023-01-31T19:19:12.603Z,99183.31
2023-01-31T19:21:39.953Z,99190.94
2023-01-31T19:24:13.368Z,99191.44
2023-01-31T19:26:42.669Z,99181.16
2023-01-31T19:29:13.606Z,99188.25
2023-01-31T19:31:40.563Z,99164.53
2023-01-31T19:34:08.116Z,99179.75
2023-01-31T19:36:40.543Z,99195.00
2023-01-31T19:39:10.936Z,99193.91
2023-01-31T19:41:38.744Z,99213.75
2023-01-31T19:44:06.395Z,99202.34
2023-01-31T19:46:35.891Z,99195.84
2023-01-31T19:49:03.063Z,99196.94
2023-01-31T19:51:30.050Z,99201.84
2023-01-31T19:53:59.203Z,99211.63
2023-01-31T19:56:27.191Z,99195.88
2023-01-31T19:58:54.294Z,99212.47
2023-01-31T20:01:21.396Z,99219.00
2023-01-31T20:03:48.306Z,99211.38
2023-01-31T20:06:18.476Z,99223.66
2023-01-31T20:08:52.695Z,99214.94
2023-01-31T20:11:20.133Z,99215.56
2023-01-31T20:13:49.917Z,99227.22
2023-01-31T20:16:17.665Z,99207.38
2023-01-31T20:18:44.906Z,99211.19
2023-01-31T20:21:16.758Z,99201.97
2023-01-31T20:23:44.089Z,99219.66
2023-01-31T20:26:16.172Z,99218.31
2023-01-31T20:28:44.454Z,99228.66
2023-01-31T20:31:13.367Z,99211.78
2023-01-31T20:33:40.423Z,99236.53
2023-01-31T20:36:07.794Z,99222.13
2023-01-31T20:38:34.832Z,99230.81
2023-01-31T20:41:01.696Z,99206.28
2023-01-31T20:43:28.572Z,99225.34
2023-01-31T20:46:03.302Z,99218.78
2023-01-31T20:48:30.251Z,99219.31
2023-01-31T20:50:58.216Z,99222.53
2023-01-31T20:53:28.236Z,99233.41
2023-01-31T20:56:06.409Z,99234.75
2023-01-31T20:58:36.038Z,99237.72
2023-01-31T21:01:06.069Z,99225.22
2023-01-31T21:03:34.292Z,99239.34
2023-01-31T21:06:07.440Z,99241.31
2023-01-31T21:08:37.537Z,99226.81
2023-01-31T21:11:07.996Z,99245.88
2023-01-31T21:13:35.877Z,99245.34
2023-01-31T21:16:05.452Z,99239.88
2023-01-31T21:18:37.063Z,99246.09
2023-01-31T21:21:09.578Z,99243.63
2023-01-31T21:23:38.195Z,99234.69
2023-01-31T21:26:07.686Z,99239.84
2023-01-31T21:28:35.215Z,99235.75
2023-01-31T21:31:07.912Z,99237.94
2023-01-31T21:33:34.916Z,99236.59
2023-01-31T21:36:09.861Z,99238.53
2023-01-31T21:38:37.312Z,99251.91
2023-01-31T21:41:23.323Z,99240.13
2023-01-31T21:43:50.194Z,99246.47
2023-01-31T21:46:17.343Z,99242.94
2023-01-31T21:48:44.292Z,99272.88
2023-01-31T21:51:14.638Z,99276.13
2023-01-31T21:53:42.249Z,99274.78
2023-01-31T21:56:14.756Z,99271.56
2023-01-31T21:58:42.748Z,99267.47
2023-01-31T22:01:18.399Z,99266.09
2023-01-31T22:03:50.496Z,99257.91
2023-01-31T22:06:21.193Z,99252.78
2023-01-31T22:08:54.761Z,99258.22
2023-01-31T22:11:22.198Z,99275.31
2023-01-31T22:13:52.686Z,99268.03
2023-01-31T22:16:22.297Z,99264.47
2023-01-31T22:19:08.261Z,99257.38
2023-01-31T22:21:37.385Z,99265.00
2023-01-31T22:24:06.646Z,99262.31
2023-01-31T22:26:37.153Z,99267.19
2023-01-31T22:29:07.495Z,99272.59
2023-01-31T22:31:35.032Z,99277.47
2023-01-31T22:34:03.694Z,99274.78
2023-01-31T22:36:30.869Z,99275.84
2023-01-31T22:38:57.787Z,99269.88
2023-01-31T22:41:24.929Z,99262.19
2023-01-31T22:43:52.825Z,99274.19
2023-01-31T22:46:23.424Z,99265.69
2023-01-31T22:48:51.239Z,99280.41
2023-01-31T22:51:27.209Z,99273.03
2023-01-31T22:53:55.986Z,99279.13
2023-01-31T22:56:27.084Z,99280.47
2023-01-31T22:59:03.397Z,99278.03
2023-01-31T23:01:35.379Z,99275.34
2023-01-31T23:04:05.010Z,99273.69
2023-01-31T23:06:32.313Z,99275.59
2023-01-31T23:08:59.185Z,99275.84
2023-01-31T23:11:26.691Z,99285.38
2023-01-31T23:13:53.960Z,99287.50
2023-01-31T23:16:43.121Z,99280.72
2023-01-31T23:19:10.878Z,99291.84
2023-01-31T23:21:40.276Z,99283.19
2023-01-31T23:24:08.229Z,99265.97
2023-01-31T23:26:35.348Z,99260.03
2023-01-31T23:29:02.274Z,99263.78
2023-01-31T23:31:29.483Z,99264.91
2023-01-31T23:33:56.414Z,99279.59
2023-01-31T23:36:23.231Z,99272.00
2023-01-31T23:38:50.036Z,99275.75
2023-01-31T23:41:16.874Z,99283.31
2023-01-31T23:43:43.800Z,99289.09
2023-01-31T23:46:10.695Z,99279.59
2023-01-31T23:48:39.549Z,99286.34
2023-01-31T23:51:06.459Z,99292.56
2023-01-31T23:53:33.216Z,99287.69
2023-01-31T23:56:00.037Z,99280.91
2023-01-31T23:58:27.132Z,99292.00
